sensor_id;sensor_type;location;lat;lon;timestamp;temperature;humidity
47310;DHT22;33046;52.270;6.832;2023-02-11T00:00:19;7.40;99.90
47310;DHT22;33046;52.270;6.832;2023-02-11T00:02:26;7.40;99.90
47310;DHT22;33046;52.270;6.832;2023-02-11T00:04:33;7.40;99.90
47310;DHT22;33046;52.270;6.832;2023-02-11T00:06:39;7.40;99.90
47310;DHT22;33046;52.270;6.832;2023-02-11T00:08:48;7.40;99.90
47310;DHT22;33046;52.270;6.832;2023-02-11T00:10:56;7.40;99.90
47310;DHT22;33046;52.270;6.832;2023-02-11T00:13:03;7.40;99.90
47310;DHT22;33046;52.270;6.832;2023-02-11T00:15:09;7.40;99.90
47310;DHT22;33046;52.270;6.832;2023-02-11T00:17:16;7.40;99.90
47310;DHT22;33046;52.270;6.832;2023-02-11T00:19:23;7.40;99.90
47310;DHT22;33046;52.270;6.832;2023-02-11T00:21:30;7.40;99.90
47310;DHT22;33046;52.270;6.832;2023-02-11T00:23:37;7.40;99.90
47310;DHT22;33046;52.270;6.832;2023-02-11T00:25:46;7.40;99.90
47310;DHT22;33046;52.270;6.832;2023-02-11T00:27:53;7.40;99.90
47310;DHT22;33046;52.270;6.832;2023-02-11T00:30:00;7.40;99.90
47310;DHT22;33046;52.270;6.832;2023-02-11T00:32:10;7.40;99.90
47310;DHT22;33046;52.270;6.832;2023-02-11T00:34:16;7.40;99.90
47310;DHT22;33046;52.270;6.832;2023-02-11T00:36:25;7.40;99.90
47310;DHT22;33046;52.270;6.832;2023-02-11T00:38:32;7.40;99.90
47310;DHT22;33046;52.270;6.832;2023-02-11T00:40:39;7.40;99.90
47310;DHT22;33046;52.270;6.832;2023-02-11T00:42:47;7.40;99.90
47310;DHT22;33046;52.270;6.832;2023-02-11T00:44:54;7.50;99.90
47310;DHT22;33046;52.270;6.832;2023-02-11T00:47:01;7.40;99.90
47310;DHT22;33046;52.270;6.832;2023-02-11T00:49:08;7.40;99.90
47310;DHT22;33046;52.270;6.832;2023-02-11T00:51:14;7.40;99.90
47310;DHT22;33046;52.270;6.832;2023-02-11T00:53:21;7.50;99.90
47310;DHT22;33046;52.270;6.832;2023-02-11T00:55:28;7.50;99.90
47310;DHT22;33046;52.270;6.832;2023-02-11T00:57:35;7.50;99.90
47310;DHT22;33046;52.270;6.832;2023-02-11T00:59:43;7.50;99.90
47310;DHT22;33046;52.270;6.832;2023-02-11T01:01:50;7.50;99.90
47310;DHT22;33046;52.270;6.832;2023-02-11T01:03:58;7.50;99.90
47310;DHT22;33046;52.270;6.832;2023-02-11T01:06:07;7.50;99.90
47310;DHT22;33046;52.270;6.832;2023-02-11T01:08:16;7.50;99.90
47310;DHT22;33046;52.270;6.832;2023-02-11T01:10:24;7.50;99.90
47310;DHT22;33046;52.270;6.832;2023-02-11T01:12:31;7.50;99.90
47310;DHT22;33046;52.270;6.832;2023-02-11T01:14:43;7.50;99.90
47310;DHT22;33046;52.270;6.832;2023-02-11T01:16:50;7.50;99.90
47310;DHT22;33046;52.270;6.832;2023-02-11T01:18:56;7.50;99.90
47310;DHT22;33046;52.270;6.832;2023-02-11T01:21:04;7.50;99.90
47310;DHT22;33046;52.270;6.832;2023-02-11T01:23:11;7.50;99.90
47310;DHT22;33046;52.270;6.832;2023-02-11T01:25:18;7.50;99.90
47310;DHT22;33046;52.270;6.832;2023-02-11T01:27:25;7.50;99.90
47310;DHT22;33046;52.270;6.832;2023-02-11T01:29:32;7.50;99.90
47310;DHT22;33046;52.270;6.832;2023-02-11T01:31:40;7.50;99.90
47310;DHT22;33046;52.270;6.832;2023-02-11T01:33:47;7.50;99.90
47310;DHT22;33046;52.270;6.832;2023-02-11T01:35:53;7.50;99.90
47310;DHT22;33046;52.270;6.832;2023-02-11T01:38:00;7.50;99.90
47310;DHT22;33046;52.270;6.832;2023-02-11T01:40:12;7.50;99.90
47310;DHT22;33046;52.270;6.832;2023-02-11T01:42:21;7.50;99.90
47310;DHT22;33046;52.270;6.832;2023-02-11T01:44:30;7.50;99.90
47310;DHT22;33046;52.270;6.832;2023-02-11T01:46:37;7.60;99.90
47310;DHT22;33046;52.270;6.832;2023-02-11T01:48:48;7.50;99.90
47310;DHT22;33046;52.270;6.832;2023-02-11T01:51:03;7.60;99.90
47310;DHT22;33046;52.270;6.832;2023-02-11T01:53:11;7.50;99.90
47310;DHT22;33046;52.270;6.832;2023-02-11T01:55:18;7.50;99.90
47310;DHT22;33046;52.270;6.832;2023-02-11T01:57:28;7.50;99.90
47310;DHT22;33046;52.270;6.832;2023-02-11T01:59:39;7.50;99.90
47310;DHT22;33046;52.270;6.832;2023-02-11T02:01:52;7.50;99.90
47310;DHT22;33046;52.270;6.832;2023-02-11T02:04:04;7.50;99.90
47310;DHT22;33046;52.270;6.832;2023-02-11T02:06:17;7.50;99.90
47310;DHT22;33046;52.270;6.832;2023-02-11T02:08:29;7.50;99.90
47310;DHT22;33046;52.270;6.832;2023-02-11T02:10:43;7.60;99.90
47310;DHT22;33046;52.270;6.832;2023-02-11T02:12:51;7.50;99.90
47310;DHT22;33046;52.270;6.832;2023-02-11T02:15:23;7.50;99.90
47310;DHT22;33046;52.270;6.832;2023-02-11T02:17:37;7.50;99.90
47310;DHT22;33046;52.270;6.832;2023-02-11T02:20:23;7.60;99.90
47310;DHT22;33046;52.270;6.832;2023-02-11T02:22:59;7.60;99.90
47310;DHT22;33046;52.270;6.832;2023-02-11T02:25:19;7.60;99.90
47310;DHT22;33046;52.270;6.832;2023-02-11T02:27:44;7.60;99.90
47310;DHT22;33046;52.270;6.832;2023-02-11T02:30:15;7.60;99.90
47310;DHT22;33046;52.270;6.832;2023-02-11T02:32:35;7.60;99.90
47310;DHT22;33046;52.270;6.832;2023-02-11T02:34:49;7.50;99.90
47310;DHT22;33046;52.270;6.832;2023-02-11T02:37:03;7.50;99.90
47310;DHT22;33046;52.270;6.832;2023-02-11T02:39:17;7.60;99.90
47310;DHT22;33046;52.270;6.832;2023-02-11T02:41:28;7.50;99.90
47310;DHT22;33046;52.270;6.832;2023-02-11T02:43:39;7.60;99.90
47310;DHT22;33046;52.270;6.832;2023-02-11T02:45:46;7.50;99.90
47310;DHT22;33046;52.270;6.832;2023-02-11T02:47:55;7.60;99.90
47310;DHT22;33046;52.270;6.832;2023-02-11T02:50:02;7.50;99.90
47310;DHT22;33046;52.270;6.832;2023-02-11T02:52:22;7.60;99.90
47310;DHT22;33046;52.270;6.832;2023-02-11T02:54:52;7.60;99.90
47310;DHT22;33046;52.270;6.832;2023-02-11T02:57:12;7.60;99.90
47310;DHT22;33046;52.270;6.832;2023-02-11T02:59:32;7.60;99.90
47310;DHT22;33046;52.270;6.832;2023-02-11T03:01:51;7.60;99.90
47310;DHT22;33046;52.270;6.832;2023-02-11T03:04:07;7.60;99.90
47310;DHT22;33046;52.270;6.832;2023-02-11T03:06:22;7.60;99.90
47310;DHT22;33046;52.270;6.832;2023-02-11T03:08:34;7.60;99.90
47310;DHT22;33046;52.270;6.832;2023-02-11T03:10:44;7.60;99.90
47310;DHT22;33046;52.270;6.832;2023-02-11T03:12:52;7.60;99.90
47310;DHT22;33046;52.270;6.832;2023-02-11T03:15:02;7.60;99.90
47310;DHT22;33046;52.270;6.832;2023-02-11T03:17:10;7.60;99.90
47310;DHT22;33046;52.270;6.832;2023-02-11T03:19:24;7.60;99.90
47310;DHT22;33046;52.270;6.832;2023-02-11T03:21:32;7.60;99.90
47310;DHT22;33046;52.270;6.832;2023-02-11T03:23:46;7.60;99.90
47310;DHT22;33046;52.270;6.832;2023-02-11T03:25:57;7.50;99.90
47310;DHT22;33046;52.270;6.832;2023-02-11T03:28:10;7.60;99.90
47310;DHT22;33046;52.270;6.832;2023-02-11T03:30:22;7.60;99.90
47310;DHT22;33046;52.270;6.832;2023-02-11T03:32:34;7.60;99.90
47310;DHT22;33046;52.270;6.832;2023-02-11T03:34:47;7.60;99.90
47310;DHT22;33046;52.270;6.832;2023-02-11T03:36:59;7.60;99.90
47310;DHT22;33046;52.270;6.832;2023-02-11T03:39:08;7.60;99.90
47310;DHT22;33046;52.270;6.832;2023-02-11T03:41:20;7.60;99.90
47310;DHT22;33046;52.270;6.832;2023-02-11T03:43:32;7.60;99.90
47310;DHT22;33046;52.270;6.832;2023-02-11T03:45:40;7.60;99.90
47310;DHT22;33046;52.270;6.832;2023-02-11T03:47:49;7.60;99.90
47310;DHT22;33046;52.270;6.832;2023-02-11T03:50:00;7.60;99.90
47310;DHT22;33046;52.270;6.832;2023-02-11T03:52:08;7.60;99.90
47310;DHT22;33046;52.270;6.832;2023-02-11T03:54:18;7.50;99.90
47310;DHT22;33046;52.270;6.832;2023-02-11T03:56:29;7.50;99.90
47310;DHT22;33046;52.270;6.832;2023-02-11T03:58:37;7.50;99.90
47310;DHT22;33046;52.270;6.832;2023-02-11T04:00:44;7.50;99.90
47310;DHT22;33046;52.270;6.832;2023-02-11T04:02:51;7.60;99.90
47310;DHT22;33046;52.270;6.832;2023-02-11T04:04:59;7.60;99.90
47310;DHT22;33046;52.270;6.832;2023-02-11T04:07:06;7.60;99.90
47310;DHT22;33046;52.270;6.832;2023-02-11T04:09:12;7.60;99.90
47310;DHT22;33046;52.270;6.832;2023-02-11T04:11:19;7.60;99.90
47310;DHT22;33046;52.270;6.832;2023-02-11T04:13:26;7.60;99.90
47310;DHT22;33046;52.270;6.832;2023-02-11T04:15:33;7.60;99.90
47310;DHT22;33046;52.270;6.832;2023-02-11T04:17:40;7.60;99.90
47310;DHT22;33046;52.270;6.832;2023-02-11T04:19:47;7.60;99.90
47310;DHT22;33046;52.270;6.832;2023-02-11T04:21:56;7.60;99.90
47310;DHT22;33046;52.270;6.832;2023-02-11T04:24:03;7.60;99.90
47310;DHT22;33046;52.270;6.832;2023-02-11T04:26:10;7.60;99.90
47310;DHT22;33046;52.270;6.832;2023-02-11T04:28:17;7.60;99.90
47310;DHT22;33046;52.270;6.832;2023-02-11T04:30:23;7.60;99.90
47310;DHT22;33046;52.270;6.832;2023-02-11T04:32:30;7.60;99.90
47310;DHT22;33046;52.270;6.832;2023-02-11T04:34:37;7.60;99.90
47310;DHT22;33046;52.270;6.832;2023-02-11T04:36:44;7.60;99.90
47310;DHT22;33046;52.270;6.832;2023-02-11T04:38:52;7.60;99.90
47310;DHT22;33046;52.270;6.832;2023-02-11T04:40:59;7.60;99.90
47310;DHT22;33046;52.270;6.832;2023-02-11T04:43:06;7.60;99.90
47310;DHT22;33046;52.270;6.832;2023-02-11T04:45:13;7.60;99.90
47310;DHT22;33046;52.270;6.832;2023-02-11T04:47:20;7.60;99.90
47310;DHT22;33046;52.270;6.832;2023-02-11T04:49:26;7.60;99.90
47310;DHT22;33046;52.270;6.832;2023-02-11T04:51:33;7.60;99.90
47310;DHT22;33046;52.270;6.832;2023-02-11T04:53:40;7.60;99.90
47310;DHT22;33046;52.270;6.832;2023-02-11T04:55:49;7.60;99.90
47310;DHT22;33046;52.270;6.832;2023-02-11T04:57:56;7.60;99.90
47310;DHT22;33046;52.270;6.832;2023-02-11T05:00:03;7.60;99.90
47310;DHT22;33046;52.270;6.832;2023-02-11T05:02:10;7.60;99.90
47310;DHT22;33046;52.270;6.832;2023-02-11T05:04:17;7.60;99.90
47310;DHT22;33046;52.270;6.832;2023-02-11T05:06:24;7.60;99.90
47310;DHT22;33046;52.270;6.832;2023-02-11T05:08:31;7.60;99.90
47310;DHT22;33046;52.270;6.832;2023-02-11T05:10:38;7.60;99.90
47310;DHT22;33046;52.270;6.832;2023-02-11T05:12:48;7.60;99.90
47310;DHT22;33046;52.270;6.832;2023-02-11T05:14:55;7.60;99.90
47310;DHT22;33046;52.270;6.832;2023-02-11T05:17:01;7.60;99.90
47310;DHT22;33046;52.270;6.832;2023-02-11T05:19:08;7.60;99.90
47310;DHT22;33046;52.270;6.832;2023-02-11T05:21:17;7.60;99.90
47310;DHT22;33046;52.270;6.832;2023-02-11T05:23:24;7.60;99.90
47310;DHT22;33046;52.270;6.832;2023-02-11T05:25:31;7.60;99.90
47310;DHT22;33046;52.270;6.832;2023-02-11T05:27:38;7.60;99.90
47310;DHT22;33046;52.270;6.832;2023-02-11T05:29:46;7.60;99.90
47310;DHT22;33046;52.270;6.832;2023-02-11T05:31:53;7.60;99.90
47310;DHT22;33046;52.270;6.832;2023-02-11T05:33:59;7.60;99.90
47310;DHT22;33046;52.270;6.832;2023-02-11T05:36:09;7.60;99.90
47310;DHT22;33046;52.270;6.832;2023-02-11T05:38:16;7.60;99.90
47310;DHT22;33046;52.270;6.832;2023-02-11T05:40:23;7.60;99.90
47310;DHT22;33046;52.270;6.832;2023-02-11T05:42:29;7.70;99.90
47310;DHT22;33046;52.270;6.832;2023-02-11T05:44:36;7.70;99.90
47310;DHT22;33046;52.270;6.832;2023-02-11T05:46:45;7.70;99.90
47310;DHT22;33046;52.270;6.832;2023-02-11T05:48:52;7.60;99.90
47310;DHT22;33046;52.270;6.832;2023-02-11T05:50:58;7.70;99.90
47310;DHT22;33046;52.270;6.832;2023-02-11T05:53:05;7.70;99.90
47310;DHT22;33046;52.270;6.832;2023-02-11T05:55:12;7.60;99.90
47310;DHT22;33046;52.270;6.832;2023-02-11T05:57:19;7.60;99.90
47310;DHT22;33046;52.270;6.832;2023-02-11T05:59:26;7.70;99.90
47310;DHT22;33046;52.270;6.832;2023-02-11T06:01:33;7.60;99.90
47310;DHT22;33046;52.270;6.832;2023-02-11T06:03:41;7.60;99.90
47310;DHT22;33046;52.270;6.832;2023-02-11T06:05:47;7.60;99.90
47310;DHT22;33046;52.270;6.832;2023-02-11T06:07:55;7.60;99.90
47310;DHT22;33046;52.270;6.832;2023-02-11T06:10:02;7.60;99.90
47310;DHT22;33046;52.270;6.832;2023-02-11T06:12:10;7.60;99.90
47310;DHT22;33046;52.270;6.832;2023-02-11T06:14:16;7.70;99.90
47310;DHT22;33046;52.270;6.832;2023-02-11T06:16:23;7.60;99.90
47310;DHT22;33046;52.270;6.832;2023-02-11T06:18:30;7.70;99.90
47310;DHT22;33046;52.270;6.832;2023-02-11T06:20:38;7.70;99.90
47310;DHT22;33046;52.270;6.832;2023-02-11T06:22:45;7.70;99.90
47310;DHT22;33046;52.270;6.832;2023-02-11T06:24:52;7.70;99.90
47310;DHT22;33046;52.270;6.832;2023-02-11T06:27:07;7.70;99.90
47310;DHT22;33046;52.270;6.832;2023-02-11T06:29:14;7.70;99.90
47310;DHT22;33046;52.270;6.832;2023-02-11T06:31:20;7.70;99.90
47310;DHT22;33046;52.270;6.832;2023-02-11T06:33:27;7.70;99.90
47310;DHT22;33046;52.270;6.832;2023-02-11T06:35:35;7.70;99.90
47310;DHT22;33046;52.270;6.832;2023-02-11T06:37:44;7.70;99.90
47310;DHT22;33046;52.270;6.832;2023-02-11T06:39:51;7.70;99.90
47310;DHT22;33046;52.270;6.832;2023-02-11T06:41:58;7.70;99.90
47310;DHT22;33046;52.270;6.832;2023-02-11T06:44:05;7.70;99.90
47310;DHT22;33046;52.270;6.832;2023-02-11T06:46:12;7.70;99.90
47310;DHT22;33046;52.270;6.832;2023-02-11T06:48:19;7.70;99.90
47310;DHT22;33046;52.270;6.832;2023-02-11T06:50:26;7.70;99.90
47310;DHT22;33046;52.270;6.832;2023-02-11T06:52:33;7.70;99.90
47310;DHT22;33046;52.270;6.832;2023-02-11T06:54:41;7.70;99.90
47310;DHT22;33046;52.270;6.832;2023-02-11T06:56:48;7.70;99.90
47310;DHT22;33046;52.270;6.832;2023-02-11T06:58:55;7.70;99.90
47310;DHT22;33046;52.270;6.832;2023-02-11T07:01:03;7.70;99.90
47310;DHT22;33046;52.270;6.832;2023-02-11T07:03:10;7.70;99.90
47310;DHT22;33046;52.270;6.832;2023-02-11T07:05:17;7.70;99.90
47310;DHT22;33046;52.270;6.832;2023-02-11T07:07:24;7.70;99.90
47310;DHT22;33046;52.270;6.832;2023-02-11T07:09:31;7.70;99.90
47310;DHT22;33046;52.270;6.832;2023-02-11T07:11:39;7.70;99.90
47310;DHT22;33046;52.270;6.832;2023-02-11T07:13:46;7.70;99.90
47310;DHT22;33046;52.270;6.832;2023-02-11T07:15:53;7.70;99.90
47310;DHT22;33046;52.270;6.832;2023-02-11T07:18:00;7.70;99.90
47310;DHT22;33046;52.270;6.832;2023-02-11T07:20:07;7.70;99.90
47310;DHT22;33046;52.270;6.832;2023-02-11T07:22:14;7.70;99.90
47310;DHT22;33046;52.270;6.832;2023-02-11T07:24:21;7.70;99.90
47310;DHT22;33046;52.270;6.832;2023-02-11T07:26:28;7.70;99.90
47310;DHT22;33046;52.270;6.832;2023-02-11T07:28:37;7.80;99.90
47310;DHT22;33046;52.270;6.832;2023-02-11T07:30:44;7.80;99.90
47310;DHT22;33046;52.270;6.832;2023-02-11T07:32:51;7.70;99.90
47310;DHT22;33046;52.270;6.832;2023-02-11T07:34:58;7.70;99.90
47310;DHT22;33046;52.270;6.832;2023-02-11T07:37:05;7.80;99.90
47310;DHT22;33046;52.270;6.832;2023-02-11T07:39:11;7.80;99.90
47310;DHT22;33046;52.270;6.832;2023-02-11T07:41:20;7.80;99.90
47310;DHT22;33046;52.270;6.832;2023-02-11T07:43:27;7.80;99.90
47310;DHT22;33046;52.270;6.832;2023-02-11T07:45:38;7.80;99.90
47310;DHT22;33046;52.270;6.832;2023-02-11T07:47:45;7.80;99.90
47310;DHT22;33046;52.270;6.832;2023-02-11T07:49:52;7.80;99.90
47310;DHT22;33046;52.270;6.832;2023-02-11T07:52:02;7.80;99.90
47310;DHT22;33046;52.270;6.832;2023-02-11T07:54:10;7.90;99.90
47310;DHT22;33046;52.270;6.832;2023-02-11T07:56:18;7.90;99.90
47310;DHT22;33046;52.270;6.832;2023-02-11T07:58:25;7.90;99.90
47310;DHT22;33046;52.270;6.832;2023-02-11T08:00:32;7.90;99.90
47310;DHT22;33046;52.270;6.832;2023-02-11T08:02:40;7.90;99.90
47310;DHT22;33046;52.270;6.832;2023-02-11T08:04:47;7.90;99.90
47310;DHT22;33046;52.270;6.832;2023-02-11T08:06:53;7.90;99.90
47310;DHT22;33046;52.270;6.832;2023-02-11T08:09:05;7.90;99.90
47310;DHT22;33046;52.270;6.832;2023-02-11T08:11:14;7.90;99.90
47310;DHT22;33046;52.270;6.832;2023-02-11T08:13:21;8.00;99.90
47310;DHT22;33046;52.270;6.832;2023-02-11T08:15:28;8.00;99.90
47310;DHT22;33046;52.270;6.832;2023-02-11T08:17:35;8.00;99.90
47310;DHT22;33046;52.270;6.832;2023-02-11T08:19:43;8.00;99.90
47310;DHT22;33046;52.270;6.832;2023-02-11T08:21:54;8.00;99.90
47310;DHT22;33046;52.270;6.832;2023-02-11T08:24:01;8.00;99.90
47310;DHT22;33046;52.270;6.832;2023-02-11T08:26:10;8.00;99.90
47310;DHT22;33046;52.270;6.832;2023-02-11T08:28:17;8.10;99.90
47310;DHT22;33046;52.270;6.832;2023-02-11T08:30:24;8.10;99.90
47310;DHT22;33046;52.270;6.832;2023-02-11T08:32:33;8.10;99.90
47310;DHT22;33046;52.270;6.832;2023-02-11T08:34:40;8.10;99.90
47310;DHT22;33046;52.270;6.832;2023-02-11T08:36:48;8.10;99.90
47310;DHT22;33046;52.270;6.832;2023-02-11T08:38:56;8.10;99.90
47310;DHT22;33046;52.270;6.832;2023-02-11T08:41:17;8.10;99.90
47310;DHT22;33046;52.270;6.832;2023-02-11T08:43:24;8.10;99.90
47310;DHT22;33046;52.270;6.832;2023-02-11T08:45:31;8.20;99.90
47310;DHT22;33046;52.270;6.832;2023-02-11T08:47:38;8.20;99.90
47310;DHT22;33046;52.270;6.832;2023-02-11T08:49:45;8.20;99.90
47310;DHT22;33046;52.270;6.832;2023-02-11T08:51:53;8.20;99.90
47310;DHT22;33046;52.270;6.832;2023-02-11T08:54:00;8.30;99.90
47310;DHT22;33046;52.270;6.832;2023-02-11T08:56:09;8.30;99.90
47310;DHT22;33046;52.270;6.832;2023-02-11T08:58:19;8.30;99.90
47310;DHT22;33046;52.270;6.832;2023-02-11T09:00:26;8.30;99.90
47310;DHT22;33046;52.270;6.832;2023-02-11T09:02:33;8.30;99.90
47310;DHT22;33046;52.270;6.832;2023-02-11T09:04:40;8.40;99.90
47310;DHT22;33046;52.270;6.832;2023-02-11T09:06:47;8.40;99.90
47310;DHT22;33046;52.270;6.832;2023-02-11T09:08:56;8.40;99.90
47310;DHT22;33046;52.270;6.832;2023-02-11T09:11:04;8.40;99.90
47310;DHT22;33046;52.270;6.832;2023-02-11T09:13:10;8.40;99.90
47310;DHT22;33046;52.270;6.832;2023-02-11T09:15:17;8.50;99.90
47310;DHT22;33046;52.270;6.832;2023-02-11T09:17:24;8.50;99.90
47310;DHT22;33046;52.270;6.832;2023-02-11T09:19:31;8.50;99.90
47310;DHT22;33046;52.270;6.832;2023-02-11T09:21:38;8.50;99.90
47310;DHT22;33046;52.270;6.832;2023-02-11T09:23:45;8.50;99.90
47310;DHT22;33046;52.270;6.832;2023-02-11T09:25:53;8.60;99.90
47310;DHT22;33046;52.270;6.832;2023-02-11T09:28:00;8.60;99.90
47310;DHT22;33046;52.270;6.832;2023-02-11T09:30:08;8.60;99.90
47310;DHT22;33046;52.270;6.832;2023-02-11T09:32:15;8.60;99.90
47310;DHT22;33046;52.270;6.832;2023-02-11T09:34:22;8.60;99.90
47310;DHT22;33046;52.270;6.832;2023-02-11T09:36:30;8.60;99.90
47310;DHT22;33046;52.270;6.832;2023-02-11T09:38:37;8.70;99.90
47310;DHT22;33046;52.270;6.832;2023-02-11T09:40:44;8.70;99.90
47310;DHT22;33046;52.270;6.832;2023-02-11T09:42:56;8.70;99.90
47310;DHT22;33046;52.270;6.832;2023-02-11T09:45:13;8.70;99.90
47310;DHT22;33046;52.270;6.832;2023-02-11T09:47:25;8.70;99.90
47310;DHT22;33046;52.270;6.832;2023-02-11T09:49:38;8.80;99.90
47310;DHT22;33046;52.270;6.832;2023-02-11T09:51:50;8.80;99.90
47310;DHT22;33046;52.270;6.832;2023-02-11T09:54:02;8.80;99.90
47310;DHT22;33046;52.270;6.832;2023-02-11T09:56:13;8.80;99.90
47310;DHT22;33046;52.270;6.832;2023-02-11T09:58:25;8.80;99.90
47310;DHT22;33046;52.270;6.832;2023-02-11T10:00:36;8.90;99.90
47310;DHT22;33046;52.270;6.832;2023-02-11T10:02:52;8.80;99.90
47310;DHT22;33046;52.270;6.832;2023-02-11T10:05:17;8.90;99.90
47310;DHT22;33046;52.270;6.832;2023-02-11T10:07:31;8.90;99.90
47310;DHT22;33046;52.270;6.832;2023-02-11T10:09:52;8.90;99.90
47310;DHT22;33046;52.270;6.832;2023-02-11T10:12:12;8.90;99.90
47310;DHT22;33046;52.270;6.832;2023-02-11T10:14:39;9.00;99.90
47310;DHT22;33046;52.270;6.832;2023-02-11T10:16:57;9.00;99.90
47310;DHT22;33046;52.270;6.832;2023-02-11T10:19:19;9.00;99.90
47310;DHT22;33046;52.270;6.832;2023-02-11T10:21:34;9.10;99.90
47310;DHT22;33046;52.270;6.832;2023-02-11T10:23:49;9.10;99.90
47310;DHT22;33046;52.270;6.832;2023-02-11T10:25:57;9.20;99.90
47310;DHT22;33046;52.270;6.832;2023-02-11T10:28:11;9.20;99.90
47310;DHT22;33046;52.270;6.832;2023-02-11T10:30:25;9.20;99.90
47310;DHT22;33046;52.270;6.832;2023-02-11T10:32:38;9.30;99.90
47310;DHT22;33046;52.270;6.832;2023-02-11T10:34:48;9.30;99.90
47310;DHT22;33046;52.270;6.832;2023-02-11T10:36:55;9.30;99.90
47310;DHT22;33046;52.270;6.832;2023-02-11T10:39:11;9.40;99.90
47310;DHT22;33046;52.270;6.832;2023-02-11T10:41:21;9.40;99.90
47310;DHT22;33046;52.270;6.832;2023-02-11T10:43:30;9.50;99.90
47310;DHT22;33046;52.270;6.832;2023-02-11T10:45:41;9.50;99.90
47310;DHT22;33046;52.270;6.832;2023-02-11T10:47:48;9.60;99.90
47310;DHT22;33046;52.270;6.832;2023-02-11T10:49:55;9.60;99.90
47310;DHT22;33046;52.270;6.832;2023-02-11T10:52:13;9.60;99.90
47310;DHT22;33046;52.270;6.832;2023-02-11T10:54:20;9.70;99.90
47310;DHT22;33046;52.270;6.832;2023-02-11T10:56:27;9.70;99.90
47310;DHT22;33046;52.270;6.832;2023-02-11T10:58:39;9.80;99.90
47310;DHT22;33046;52.270;6.832;2023-02-11T11:00:50;9.80;99.90
47310;DHT22;33046;52.270;6.832;2023-02-11T11:03:00;9.90;99.90
47310;DHT22;33046;52.270;6.832;2023-02-11T11:05:15;9.90;99.90
47310;DHT22;33046;52.270;6.832;2023-02-11T11:07:24;10.00;99.90
47310;DHT22;33046;52.270;6.832;2023-02-11T11:09:43;10.10;99.90
47310;DHT22;33046;52.270;6.832;2023-02-11T11:11:51;10.10;99.90
47310;DHT22;33046;52.270;6.832;2023-02-11T11:13:59;10.10;99.90
47310;DHT22;33046;52.270;6.832;2023-02-11T11:16:20;10.20;99.90
47310;DHT22;33046;52.270;6.832;2023-02-11T11:18:27;10.20;99.90
47310;DHT22;33046;52.270;6.832;2023-02-11T11:20:34;10.20;99.90
47310;DHT22;33046;52.270;6.832;2023-02-11T11:22:42;10.20;99.90
47310;DHT22;33046;52.270;6.832;2023-02-11T11:24:49;10.30;99.90
47310;DHT22;33046;52.270;6.832;2023-02-11T11:26:58;10.30;99.90
47310;DHT22;33046;52.270;6.832;2023-02-11T11:29:08;10.30;99.90
47310;DHT22;33046;52.270;6.832;2023-02-11T11:31:21;10.40;99.90
47310;DHT22;33046;52.270;6.832;2023-02-11T11:33:32;10.40;99.90
47310;DHT22;33046;52.270;6.832;2023-02-11T11:35:39;10.40;99.90
47310;DHT22;33046;52.270;6.832;2023-02-11T11:37:52;10.40;99.90
47310;DHT22;33046;52.270;6.832;2023-02-11T11:40:06;10.40;99.90
47310;DHT22;33046;52.270;6.832;2023-02-11T11:42:29;10.40;99.90
47310;DHT22;33046;52.270;6.832;2023-02-11T11:44:37;10.40;99.90
47310;DHT22;33046;52.270;6.832;2023-02-11T11:46:46;10.40;99.90
47310;DHT22;33046;52.270;6.832;2023-02-11T11:49:00;10.40;99.90
47310;DHT22;33046;52.270;6.832;2023-02-11T11:51:10;10.40;99.90
47310;DHT22;33046;52.270;6.832;2023-02-11T11:53:21;10.40;99.90
47310;DHT22;33046;52.270;6.832;2023-02-11T11:55:34;10.40;99.90
47310;DHT22;33046;52.270;6.832;2023-02-11T11:57:42;10.40;99.90
47310;DHT22;33046;52.270;6.832;2023-02-11T11:59:48;10.50;99.90
47310;DHT22;33046;52.270;6.832;2023-02-11T12:02:24;10.40;99.90
47310;DHT22;33046;52.270;6.832;2023-02-11T12:05:00;10.50;99.90
47310;DHT22;33046;52.270;6.832;2023-02-11T12:07:14;10.50;99.90
47310;DHT22;33046;52.270;6.832;2023-02-11T12:09:27;10.50;99.90
47310;DHT22;33046;52.270;6.832;2023-02-11T12:11:48;10.50;99.90
47310;DHT22;33046;52.270;6.832;2023-02-11T12:14:05;10.60;99.90
47310;DHT22;33046;52.270;6.832;2023-02-11T12:16:24;10.60;99.90
47310;DHT22;33046;52.270;6.832;2023-02-11T12:19:05;10.60;99.90
47310;DHT22;33046;52.270;6.832;2023-02-11T12:21:33;10.60;99.90
47310;DHT22;33046;52.270;6.832;2023-02-11T12:23:54;10.70;99.90
47310;DHT22;33046;52.270;6.832;2023-02-11T12:26:12;10.70;99.90
47310;DHT22;33046;52.270;6.832;2023-02-11T12:28:29;10.80;99.90
47310;DHT22;33046;52.270;6.832;2023-02-11T12:30:47;10.80;99.90
47310;DHT22;33046;52.270;6.832;2023-02-11T12:33:00;10.80;99.90
47310;DHT22;33046;52.270;6.832;2023-02-11T12:35:22;10.80;99.90
47310;DHT22;33046;52.270;6.832;2023-02-11T12:37:41;10.90;99.90
47310;DHT22;33046;52.270;6.832;2023-02-11T12:40:00;10.90;99.90
47310;DHT22;33046;52.270;6.832;2023-02-11T12:42:32;10.90;99.90
47310;DHT22;33046;52.270;6.832;2023-02-11T12:44:49;10.90;99.90
47310;DHT22;33046;52.270;6.832;2023-02-11T12:47:08;11.00;99.90
47310;DHT22;33046;52.270;6.832;2023-02-11T12:49:30;11.10;99.90
47310;DHT22;33046;52.270;6.832;2023-02-11T12:51:50;11.00;99.90
47310;DHT22;33046;52.270;6.832;2023-02-11T12:54:17;11.10;99.90
47310;DHT22;33046;52.270;6.832;2023-02-11T12:56:28;11.10;99.90
47310;DHT22;33046;52.270;6.832;2023-02-11T12:58:37;11.10;99.90
47310;DHT22;33046;52.270;6.832;2023-02-11T13:00:55;11.20;99.90
47310;DHT22;33046;52.270;6.832;2023-02-11T13:03:06;11.20;99.90
47310;DHT22;33046;52.270;6.832;2023-02-11T13:05:23;11.20;99.90
47310;DHT22;33046;52.270;6.832;2023-02-11T13:07:36;11.20;99.90
47310;DHT22;33046;52.270;6.832;2023-02-11T13:09:49;11.20;99.90
47310;DHT22;33046;52.270;6.832;2023-02-11T13:11:58;11.20;99.90
47310;DHT22;33046;52.270;6.832;2023-02-11T13:14:11;11.20;99.90
47310;DHT22;33046;52.270;6.832;2023-02-11T13:16:30;11.20;99.90
47310;DHT22;33046;52.270;6.832;2023-02-11T13:18:48;11.20;99.90
47310;DHT22;33046;52.270;6.832;2023-02-11T13:21:07;11.20;99.90
47310;DHT22;33046;52.270;6.832;2023-02-11T13:23:27;11.20;99.90
47310;DHT22;33046;52.270;6.832;2023-02-11T13:25:43;11.20;99.90
47310;DHT22;33046;52.270;6.832;2023-02-11T13:27:56;11.20;99.90
47310;DHT22;33046;52.270;6.832;2023-02-11T13:30:21;11.30;99.90
47310;DHT22;33046;52.270;6.832;2023-02-11T13:33:01;11.20;99.90
47310;DHT22;33046;52.270;6.832;2023-02-11T13:35:26;11.20;99.90
47310;DHT22;33046;52.270;6.832;2023-02-11T13:37:35;11.30;99.90
47310;DHT22;33046;52.270;6.832;2023-02-11T13:39:55;11.20;99.90
47310;DHT22;33046;52.270;6.832;2023-02-11T13:42:03;11.20;99.90
47310;DHT22;33046;52.270;6.832;2023-02-11T13:44:21;11.30;99.90
47310;DHT22;33046;52.270;6.832;2023-02-11T13:46:47;11.30;99.90
47310;DHT22;33046;52.270;6.832;2023-02-11T13:48:55;11.30;99.90
47310;DHT22;33046;52.270;6.832;2023-02-11T13:51:05;11.30;99.90
47310;DHT22;33046;52.270;6.832;2023-02-11T13:53:13;11.30;99.90
47310;DHT22;33046;52.270;6.832;2023-02-11T13:55:23;11.30;99.90